Time;durP1;ratioP1;P1;durP2;ratioP2;P2;SDS_P1;SDS_P2;PMS_P1;PMS_P2;Temp;Humidity;BMP_temperature;BMP_pressure;BME280_temperature;BME280_humidity;BME280_pressure;Samples;Min_cycle;Max_cycle;Signal;HPM_P1;HPM_P2
2024/04/06 00:00:08;;;;;;;1.50;1.08;;;16.70;99.90;;;;;;2091525;28;20032;-67
2024/04/06 00:01:10;;;;;;;3.30;1.15;;;16.80;99.90;;;;;;2094592;28;20104;-68
2024/04/06 00:02:10;;;;;;;1.02;0.80;;;16.80;99.90;;;;;;2093277;28;20483;-69
2024/04/06 00:03:14;;;;;;;2.00;0.90;;;16.70;99.90;;;;;;2094633;28;20208;-67
2024/04/06 00:04:14;;;;;;;1.42;0.82;;;16.70;99.90;;;;;;2093358;28;20024;-68
2024/04/06 00:05:18;;;;;;;1.17;0.90;;;16.70;99.90;;;;;;2092786;28;20025;-70
2024/04/06 00:06:21;;;;;;;4.20;1.00;;;16.80;99.90;;;;;;2093864;28;20018;-67
2024/04/06 00:07:23;;;;;;;1.23;0.82;;;16.70;99.90;;;;;;2084169;28;20017;-67
2024/04/06 00:08:23;;;;;;;1.10;0.90;;;16.70;99.90;;;;;;2085332;28;20025;-68
2024/04/06 00:09:24;;;;;;;2.28;1.00;;;16.80;99.90;;;;;;2095321;28;20027;-69
2024/04/06 00:10:25;;;;;;;1.00;0.90;;;16.70;99.90;;;;;;2093470;28;20044;-69
2024/04/06 00:11:25;;;;;;;3.05;1.27;;;16.70;99.90;;;;;;2094426;28;20064;-67
2024/04/06 00:12:26;;;;;;;3.08;0.90;;;16.70;99.90;;;;;;2093081;28;20028;-71
2024/04/06 00:13:29;;;;;;;1.40;0.90;;;16.80;99.90;;;;;;2093308;28;20492;-67
2024/04/06 00:14:30;;;;;;;3.35;1.00;;;16.70;99.90;;;;;;2091604;28;20032;-70
2024/04/06 00:15:32;;;;;;;1.10;0.70;;;16.80;99.90;;;;;;2094195;28;20094;-67
2024/04/06 00:16:32;;;;;;;3.30;0.90;;;16.80;99.90;;;;;;2090612;28;20025;-71
2024/04/06 00:17:33;;;;;;;1.13;0.93;;;16.80;99.90;;;;;;2088058;28;20108;-67
2024/04/06 00:18:35;;;;;;;1.70;0.88;;;16.80;99.90;;;;;;2086032;28;20137;-69
2024/04/06 00:19:39;;;;;;;1.65;0.90;;;16.80;99.90;;;;;;2093687;28;20056;-68
2024/04/06 00:20:39;;;;;;;2.40;0.73;;;16.80;99.90;;;;;;2096273;28;20524;-70
2024/04/06 00:21:40;;;;;;;1.95;0.90;;;16.70;99.90;;;;;;2096074;28;20362;-68
2024/04/06 00:22:41;;;;;;;0.98;0.80;;;16.80;99.90;;;;;;2096051;28;20031;-68
2024/04/06 00:23:41;;;;;;;1.25;1.00;;;16.80;99.90;;;;;;2086508;28;20115;-68
2024/04/06 00:24:42;;;;;;;2.20;0.90;;;16.80;99.90;;;;;;2085946;28;20040;-68
2024/04/06 00:25:45;;;;;;;2.40;0.95;;;16.80;99.90;;;;;;2095675;28;20413;-68
2024/04/06 00:26:46;;;;;;;1.10;0.80;;;16.80;99.90;;;;;;2094054;28;20031;-68
2024/04/06 00:27:46;;;;;;;1.05;0.82;;;16.80;99.90;;;;;;2095932;28;20031;-68
2024/04/06 00:28:47;;;;;;;1.90;1.00;;;16.80;99.90;;;;;;2094036;28;20728;-67
2024/04/06 00:29:48;;;;;;;2.67;1.10;;;16.80;99.90;;;;;;2084413;28;20014;-69
2024/04/06 00:30:49;;;;;;;1.63;0.80;;;16.80;99.90;;;;;;2086237;28;20025;-69
2024/04/06 00:31:49;;;;;;;2.22;0.93;;;16.80;99.90;;;;;;2094438;28;20531;-70
2024/04/06 00:32:50;;;;;;;1.20;0.63;;;16.70;99.90;;;;;;2094030;28;20443;-68
2024/04/06 00:33:50;;;;;;;2.05;1.10;;;16.80;99.90;;;;;;2092710;28;20024;-68
2024/04/06 00:34:51;;;;;;;5.63;1.08;;;16.80;99.90;;;;;;2094831;28;20039;-69
2024/04/06 00:35:54;;;;;;;1.33;1.00;;;16.80;99.90;;;;;;2092901;28;20493;-69
2024/04/06 00:36:56;;;;;;;1.98;1.10;;;16.70;99.90;;;;;;2094947;28;20055;-69
2024/04/06 00:37:59;;;;;;;2.38;0.90;;;16.70;99.90;;;;;;2088972;28;20108;-69
2024/04/06 00:39:00;;;;;;;1.70;0.85;;;16.70;99.90;;;;;;2089385;28;20433;-68
2024/04/06 00:40:06;;;;;;;2.63;1.00;;;16.70;99.90;;;;;;2094700;28;20037;-68
2024/04/06 00:41:07;;;;;;;1.63;0.93;;;16.70;99.90;;;;;;2094796;28;20030;-68
2024/04/06 00:42:08;;;;;;;1.80;1.02;;;16.70;99.90;;;;;;2095890;28;20032;-69
2024/04/06 00:43:09;;;;;;;2.88;1.00;;;16.70;99.90;;;;;;2093558;28;20049;-68
2024/04/06 00:44:16;;;;;;;1.48;1.00;;;16.70;99.90;;;;;;2085361;28;20028;-69
2024/04/06 00:45:16;;;;;;;2.47;1.30;;;16.70;99.90;;;;;;2087598;28;20017;-68
2024/04/06 00:46:17;;;;;;;2.25;1.00;;;16.70;99.90;;;;;;2094919;28;20036;-68
2024/04/06 00:47:21;;;;;;;2.30;0.82;;;16.70;99.90;;;;;;2094394;28;20021;-68
2024/04/06 00:48:22;;;;;;;5.05;1.20;;;16.70;99.90;;;;;;2093542;28;20785;-69
2024/04/06 00:49:23;;;;;;;1.95;1.08;;;16.70;99.90;;;;;;2094116;28;20635;-68
2024/04/06 00:50:23;;;;;;;2.88;0.98;;;16.70;99.90;;;;;;2095356;28;20044;-68
2024/04/06 00:51:24;;;;;;;1.10;1.00;;;16.70;99.90;;;;;;2095002;28;20062;-68
2024/04/06 00:52:37;;;;;;;1.70;1.00;;;16.60;99.90;;;;;;2096359;28;20128;-68
2024/04/06 00:53:38;;;;;;;2.40;1.10;;;16.60;99.90;;;;;;2094179;28;20079;-68
2024/04/06 00:54:42;;;;;;;2.92;1.27;;;16.60;99.90;;;;;;2095099;28;20024;-67
2024/04/06 00:55:46;;;;;;;4.30;1.40;;;16.60;99.90;;;;;;2094336;28;20021;-68
2024/04/06 00:56:49;;;;;;;1.27;0.80;;;16.60;99.90;;;;;;2095752;28;20025;-69
2024/04/06 00:57:50;;;;;;;3.72;1.05;;;16.60;99.90;;;;;;2093577;28;20024;-68
2024/04/06 00:58:51;;;;;;;2.13;1.00;;;16.60;99.90;;;;;;2092930;28;20021;-67
2024/04/06 00:59:52;;;;;;;2.85;1.48;;;16.60;99.90;;;;;;2095754;28;20082;-67
2024/04/06 01:00:52;;;;;;;2.97;0.93;;;16.60;99.90;;;;;;2094701;28;20488;-69
2024/04/06 01:01:56;;;;;;;3.22;1.30;;;16.60;99.90;;;;;;2094046;28;21008;-69
2024/04/06 01:02:57;;;;;;;2.67;1.08;;;16.60;99.90;;;;;;2094327;28;20029;-66
2024/04/06 01:03:58;;;;;;;2.58;1.08;;;16.60;99.90;;;;;;2094752;28;20507;-67
2024/04/06 01:04:59;;;;;;;2.38;1.20;;;16.60;99.90;;;;;;2094114;28;20020;-68
2024/04/06 01:05:59;;;;;;;2.63;0.93;;;16.60;99.90;;;;;;2095296;28;20035;-69
2024/04/06 01:07:00;;;;;;;3.72;1.20;;;16.60;99.90;;;;;;2093664;28;20034;-69
2024/04/06 01:08:01;;;;;;;3.33;1.30;;;16.60;99.90;;;;;;2094136;28;20025;-67
2024/04/06 01:09:10;;;;;;;1.42;1.10;;;16.50;99.90;;;;;;2093954;28;20021;-67
2024/04/06 01:10:11;;;;;;;3.55;1.60;;;16.60;99.90;;;;;;2095140;28;20020;-69
2024/04/06 01:11:11;;;;;;;4.18;1.80;;;16.50;99.90;;;;;;2092587;28;20064;-70
2024/04/06 01:12:12;;;;;;;1.40;1.00;;;16.60;99.90;;;;;;2083638;28;20022;-68
2024/04/06 01:13:13;;;;;;;1.60;1.02;;;16.50;99.90;;;;;;2086334;28;20021;-68
2024/04/06 01:14:14;;;;;;;1.73;1.00;;;16.60;99.90;;;;;;2095657;28;20114;-68
2024/04/06 01:15:15;;;;;;;2.20;1.20;;;16.50;99.90;;;;;;2093911;28;20025;-68
2024/04/06 01:16:15;;;;;;;1.67;1.02;;;16.60;99.90;;;;;;2094042;28;20143;-69
2024/04/06 01:17:16;;;;;;;1.90;1.13;;;16.50;99.90;;;;;;2096245;28;20048;-67
2024/04/06 01:18:16;;;;;;;1.95;1.27;;;16.50;99.90;;;;;;2094128;28;20032;-68
2024/04/06 01:19:20;;;;;;;2.67;1.10;;;16.50;99.90;;;;;;2095074;28;20025;-68
2024/04/06 01:20:21;;;;;;;2.65;1.55;;;16.50;99.90;;;;;;2091847;28;20424;-69
2024/04/06 01:21:21;;;;;;;2.20;1.20;;;16.60;99.90;;;;;;2093201;28;20020;-68
2024/04/06 01:22:22;;;;;;;2.67;1.30;;;16.60;99.90;;;;;;2087765;28;20118;-68
2024/04/06 01:23:23;;;;;;;4.28;1.55;;;16.50;99.90;;;;;;2086292;28;20040;-68
2024/04/06 01:24:31;;;;;;;1.48;1.20;;;16.50;99.90;;;;;;2083421;28;20025;-67
2024/04/06 01:25:32;;;;;;;3.72;1.15;;;16.50;99.90;;;;;;2068361;28;20026;-68
2024/04/06 01:26:35;;;;;;;2.47;1.10;;;16.50;99.90;;;;;;2067227;28;20042;-67
2024/04/06 01:27:36;;;;;;;3.13;1.15;;;16.50;99.90;;;;;;2083661;28;20026;-67
2024/04/06 01:28:37;;;;;;;4.00;1.13;;;16.50;99.90;;;;;;2086532;28;20025;-68
2024/04/06 01:29:37;;;;;;;2.13;1.20;;;16.50;99.90;;;;;;2087599;28;20458;-67
2024/04/06 01:30:38;;;;;;;3.25;0.98;;;16.50;99.90;;;;;;2084872;28;20017;-69
2024/04/06 01:31:39;;;;;;;3.40;1.27;;;16.50;99.90;;;;;;2087405;28;20351;-68
2024/04/06 01:32:50;;;;;;;4.30;1.30;;;16.50;99.90;;;;;;2086985;28;20021;-68
2024/04/06 01:33:50;;;;;;;3.25;1.17;;;16.50;99.90;;;;;;2087085;28;20078;-68
2024/04/06 01:34:51;;;;;;;1.27;0.90;;;16.50;99.90;;;;;;2088729;28;20029;-68
2024/04/06 01:35:51;;;;;;;1.20;0.85;;;16.50;99.90;;;;;;2085410;28;20040;-68
2024/04/06 01:36:52;;;;;;;2.78;1.45;;;16.50;99.90;;;;;;2084647;28;20056;-67
2024/04/06 01:37:55;;;;;;;2.35;1.30;;;16.50;99.90;;;;;;2087047;28;20108;-68
2024/04/06 01:38:56;;;;;;;1.85;1.23;;;16.50;99.90;;;;;;2085463;28;20029;-68
2024/04/06 01:39:56;;;;;;;2.95;1.45;;;16.50;99.90;;;;;;2086098;28;20039;-68
2024/04/06 01:40:57;;;;;;;1.73;1.02;;;16.50;99.90;;;;;;2084766;28;20507;-68
2024/04/06 01:41:57;;;;;;;3.42;1.20;;;16.50;99.90;;;;;;2086972;28;20100;-67
2024/04/06 01:42:58;;;;;;;3.17;1.10;;;16.50;99.90;;;;;;2084853;28;20115;-66
2024/04/06 01:43:59;;;;;;;3.33;1.20;;;16.50;99.90;;;;;;2079303;28;20080;-67
2024/04/06 01:44:59;;;;;;;3.05;1.25;;;16.50;99.90;;;;;;2078137;28;20025;-67
2024/04/06 01:46:00;;;;;;;3.67;1.20;;;16.50;99.90;;;;;;2085357;28;20370;-67
2024/04/06 01:47:00;;;;;;;4.35;1.00;;;16.50;99.90;;;;;;2087632;28;20030;-68
2024/04/06 01:48:01;;;;;;;2.55;1.30;;;16.50;99.90;;;;;;2085891;28;20108;-67
2024/04/06 01:49:01;;;;;;;2.88;1.10;;;16.50;99.90;;;;;;2086788;28;20037;-68
2024/04/06 01:50:14;;;;;;;1.73;1.15;;;16.50;99.90;;;;;;2087227;28;20025;-67
2024/04/06 01:51:17;;;;;;;2.03;1.23;;;16.50;99.90;;;;;;2085845;28;20386;-68
2024/04/06 01:52:18;;;;;;;1.65;1.27;;;16.40;99.90;;;;;;2084110;28;20040;-67
2024/04/06 01:53:19;;;;;;;2.25;1.35;;;16.50;99.90;;;;;;2085366;28;20032;-68
2024/04/06 01:54:22;;;;;;;2.08;0.98;;;16.40;99.90;;;;;;2086166;28;20804;-68
2024/04/06 01:55:29;;;;;;;5.45;1.20;;;16.40;99.90;;;;;;2085709;28;20024;-68
2024/04/06 01:56:30;;;;;;;1.67;1.10;;;16.50;99.90;;;;;;2086498;28;20029;-67
2024/04/06 01:57:30;;;;;;;2.10;1.10;;;16.40;99.90;;;;;;2085552;28;20025;-69
2024/04/06 01:58:31;;;;;;;2.05;1.10;;;16.40;99.90;;;;;;2086000;28;20107;-66
2024/04/06 01:59:34;;;;;;;2.78;1.10;;;16.40;99.90;;;;;;2085444;28;20078;-66
2024/04/06 02:00:38;;;;;;;2.25;1.02;;;16.40;99.90;;;;;;2078064;28;20025;-68
2024/04/06 02:01:38;;;;;;;3.85;1.52;;;16.40;99.90;;;;;;2085322;28;20025;-67
2024/04/06 02:02:39;;;;;;;4.25;1.23;;;16.40;99.90;;;;;;2085649;28;20490;-68
2024/04/06 02:03:40;;;;;;;2.85;0.98;;;16.40;99.90;;;;;;2086610;28;20029;-68
2024/04/06 02:04:41;;;;;;;3.85;1.50;;;16.40;99.90;;;;;;2086312;28;20017;-68
2024/04/06 02:05:41;;;;;;;4.68;1.35;;;16.40;99.90;;;;;;2072742;28;20026;-68
2024/04/06 02:06:42;;;;;;;2.38;1.20;;;16.40;99.90;;;;;;2071441;28;20056;-69
2024/04/06 02:07:42;;;;;;;1.70;1.27;;;16.50;99.90;;;;;;2085864;28;20029;-67
2024/04/06 02:08:43;;;;;;;3.35;1.10;;;16.40;99.90;;;;;;2085799;28;20393;-68
2024/04/06 02:09:44;;;;;;;3.58;0.90;;;16.40;99.90;;;;;;2084970;28;20044;-68
2024/04/06 02:10:44;;;;;;;1.90;0.80;;;16.40;99.90;;;;;;2084703;28;20139;-67
2024/04/06 02:11:45;;;;;;;4.70;1.48;;;16.40;99.90;;;;;;2086658;28;20017;-67
2024/04/06 02:12:47;;;;;;;2.45;1.17;;;16.40;99.90;;;;;;2084048;28;20021;-69
2024/04/06 02:13:47;;;;;;;2.25;1.13;;;16.40;99.90;;;;;;2087706;28;20680;-67
2024/04/06 02:14:48;;;;;;;2.40;1.33;;;16.40;99.90;;;;;;2086412;28;20082;-68
2024/04/06 02:15:48;;;;;;;1.58;1.10;;;16.40;99.90;;;;;;2087267;28;20162;-68
2024/04/06 02:16:49;;;;;;;1.70;1.17;;;16.40;99.90;;;;;;2084592;28;20573;-69
2024/04/06 02:17:49;;;;;;;2.28;1.20;;;16.40;99.90;;;;;;2087299;28;20371;-67
2024/04/06 02:18:50;;;;;;;2.50;1.25;;;16.40;99.90;;;;;;2085167;28;20040;-68
2024/04/06 02:19:50;;;;;;;3.88;1.40;;;16.40;99.90;;;;;;2084462;28;20041;-68
2024/04/06 02:20:52;;;;;;;1.83;1.05;;;16.40;99.90;;;;;;2086891;28;20086;-68
2024/04/06 02:21:52;;;;;;;2.70;1.42;;;16.30;99.90;;;;;;2093281;28;20051;-68
2024/04/06 02:22:53;;;;;;;3.20;1.38;;;16.30;99.90;;;;;;2094285;28;20028;-70
2024/04/06 02:23:53;;;;;;;2.05;0.98;;;16.30;99.90;;;;;;2094886;28;20044;-68
2024/04/06 02:24:54;;;;;;;2.05;1.10;;;16.30;99.90;;;;;;2091992;28;20051;-70
2024/04/06 02:25:54;;;;;;;1.10;1.00;;;16.30;99.90;;;;;;2094266;28;20128;-68
2024/04/06 02:26:55;;;;;;;3.17;1.02;;;16.30;99.90;;;;;;2091886;28;20032;-68
2024/04/06 02:27:55;;;;;;;1.98;0.90;;;16.30;99.90;;;;;;2092630;28;20020;-69
2024/04/06 02:28:56;;;;;;;2.05;1.17;;;16.30;99.90;;;;;;2095473;28;20024;-68
2024/04/06 02:29:56;;;;;;;2.15;1.20;;;16.30;99.90;;;;;;2095444;28;20132;-69
2024/04/06 02:30:57;;;;;;;2.58;1.10;;;16.30;99.90;;;;;;2093697;28;20872;-68
2024/04/06 02:31:58;;;;;;;2.97;1.23;;;16.30;99.90;;;;;;2093556;28;20565;-68
2024/04/06 02:32:58;;;;;;;2.42;1.27;;;16.30;99.90;;;;;;2085977;28;20021;-68
2024/04/06 02:33:59;;;;;;;3.45;1.20;;;16.20;99.90;;;;;;2084499;28;20118;-68
2024/04/06 02:35:00;;;;;;;3.20;1.27;;;16.20;99.90;;;;;;2092498;28;20094;-67
2024/04/06 02:36:00;;;;;;;2.97;1.10;;;16.20;99.90;;;;;;2094594;28;20037;-67
2024/04/06 02:37:01;;;;;;;3.17;1.20;;;16.20;99.90;;;;;;2094216;28;20043;-68
2024/04/06 02:38:02;;;;;;;2.83;1.25;;;16.20;99.90;;;;;;2095536;28;20111;-67
2024/04/06 02:39:03;;;;;;;2.17;1.23;;;16.20;99.90;;;;;;2094228;28;20031;-68
2024/04/06 02:40:06;;;;;;;8.88;1.50;;;16.20;99.90;;;;;;2094469;28;20041;-67
2024/04/06 02:41:06;;;;;;;4.32;1.27;;;16.10;99.90;;;;;;2093641;28;20119;-68
2024/04/06 02:42:07;;;;;;;3.15;1.45;;;16.10;99.90;;;;;;2094024;28;20025;-67
2024/04/06 02:43:07;;;;;;;1.77;0.98;;;16.10;99.90;;;;;;2094124;28;20048;-68
2024/04/06 02:44:08;;;;;;;3.50;1.30;;;16.10;99.90;;;;;;2093899;28;20021;-68
2024/04/06 02:45:08;;;;;;;4.32;1.30;;;16.10;99.90;;;;;;2093135;28;20514;-68
2024/04/06 02:46:10;;;;;;;4.68;0.93;;;16.10;99.90;;;;;;2095420;28;20132;-67
2024/04/06 02:47:11;;;;;;;3.15;1.35;;;16.10;99.90;;;;;;2095468;28;20107;-67
2024/04/06 02:48:11;;;;;;;2.17;1.35;;;16.10;99.90;;;;;;2094342;28;20033;-68
2024/04/06 02:49:12;;;;;;;2.35;1.27;;;16.10;99.90;;;;;;2094308;28;20115;-67
2024/04/06 02:50:12;;;;;;;3.00;1.30;;;16.00;99.90;;;;;;2092875;28;20548;-68
2024/04/06 02:51:13;;;;;;;2.78;1.48;;;16.00;99.90;;;;;;2094142;28;20027;-67
2024/04/06 02:52:14;;;;;;;3.10;1.30;;;16.00;99.90;;;;;;2092014;28;20052;-67
2024/04/06 02:53:14;;;;;;;1.95;1.30;;;16.00;99.90;;;;;;2094005;28;20024;-68
2024/04/06 02:54:15;;;;;;;2.65;1.27;;;16.00;99.90;;;;;;2094107;28;20474;-68
2024/04/06 02:55:15;;;;;;;2.65;1.23;;;16.00;99.90;;;;;;2093435;28;20396;-67
2024/04/06 02:56:16;;;;;;;3.30;1.20;;;15.90;99.90;;;;;;2092017;28;20059;-68
2024/04/06 02:57:18;;;;;;;3.22;1.30;;;15.90;99.90;;;;;;2092819;28;20085;-68
2024/04/06 02:58:19;;;;;;;4.40;1.70;;;15.90;99.90;;;;;;2092777;28;20525;-68
2024/04/06 02:59:20;;;;;;;3.20;1.20;;;15.90;99.90;;;;;;2090327;28;20440;-67
2024/04/06 03:00:20;;;;;;;3.97;1.55;;;15.90;99.90;;;;;;2093731;28;20032;-67
2024/04/06 03:01:21;;;;;;;2.88;1.48;;;15.90;99.90;;;;;;2092332;28;20436;-67
2024/04/06 03:02:22;;;;;;;2.00;1.38;;;15.80;99.90;;;;;;2093367;28;20024;-67
2024/04/06 03:03:23;;;;;;;3.15;1.35;;;15.80;99.90;;;;;;2093063;28;20021;-68
2024/04/06 03:04:23;;;;;;;4.57;1.20;;;15.80;99.90;;;;;;2093656;28;20025;-67
2024/04/06 03:05:24;;;;;;;4.88;1.42;;;15.80;99.90;;;;;;2093502;28;20103;-69
2024/04/06 03:06:25;;;;;;;4.03;1.45;;;15.80;99.90;;;;;;2093662;28;20023;-68
2024/04/06 03:07:26;;;;;;;1.80;1.10;;;15.70;99.90;;;;;;2093462;28;20032;-68
2024/04/06 03:08:26;;;;;;;2.72;1.70;;;15.70;99.90;;;;;;2086333;28;20017;-67
2024/04/06 03:09:27;;;;;;;1.50;1.40;;;15.70;99.90;;;;;;2083413;28;20079;-67
2024/04/06 03:10:28;;;;;;;1.75;1.17;;;15.70;99.90;;;;;;2093308;28;20064;-68
2024/04/06 03:11:29;;;;;;;2.47;1.58;;;15.70;99.90;;;;;;2093413;28;20039;-67
2024/04/06 03:12:29;;;;;;;1.85;1.20;;;15.70;99.90;;;;;;2094401;28;20480;-68
2024/04/06 03:13:30;;;;;;;3.50;1.30;;;15.70;99.90;;;;;;2093754;28;20424;-69
2024/04/06 03:14:31;;;;;;;3.22;1.38;;;15.70;99.90;;;;;;2094458;28;20100;-67
2024/04/06 03:15:32;;;;;;;2.42;1.33;;;15.70;99.90;;;;;;2094585;28;20024;-68
2024/04/06 03:16:33;;;;;;;3.50;1.30;;;15.70;99.90;;;;;;2092238;28;20025;-68
2024/04/06 03:17:33;;;;;;;3.20;1.60;;;15.70;99.90;;;;;;2093754;28;20040;-68
2024/04/06 03:18:34;;;;;;;4.25;1.40;;;15.70;99.90;;;;;;2092512;28;20041;-68
2024/04/06 03:19:34;;;;;;;4.15;1.92;;;15.60;99.90;;;;;;2093212;28;20538;-67
2024/04/06 03:20:35;;;;;;;4.82;1.60;;;15.60;99.90;;;;;;2093026;28;20020;-68
2024/04/06 03:21:35;;;;;;;3.53;1.30;;;15.60;99.90;;;;;;2093377;28;20072;-69
2024/04/06 03:22:36;;;;;;;1.63;1.13;;;15.60;99.90;;;;;;2091288;28;20033;-68
2024/04/06 03:23:36;;;;;;;2.50;1.83;;;15.60;99.90;;;;;;2093047;28;20493;-69
2024/04/06 03:24:37;;;;;;;4.47;1.58;;;15.60;99.90;;;;;;2092167;28;20048;-69
2024/04/06 03:25:38;;;;;;;4.30;1.40;;;15.60;99.90;;;;;;2094078;28;20036;-67
2024/04/06 03:26:42;;;;;;;2.83;1.42;;;15.60;99.90;;;;;;2092680;28;20063;-68
2024/04/06 03:27:43;;;;;;;2.38;1.40;;;15.50;99.90;;;;;;2085032;28;20031;-67
2024/04/06 03:28:43;;;;;;;2.60;1.27;;;15.50;99.90;;;;;;2084391;28;20040;-67
2024/04/06 03:29:44;;;;;;;3.10;1.50;;;15.50;99.90;;;;;;2091740;28;20029;-67
2024/04/06 03:30:44;;;;;;;2.72;1.27;;;15.50;99.90;;;;;;2092609;28;20380;-68
2024/04/06 03:31:45;;;;;;;3.78;1.27;;;15.50;99.90;;;;;;2084726;28;20709;-68
2024/04/06 03:32:46;;;;;;;2.00;1.48;;;15.50;99.90;;;;;;2085187;28;20022;-68
2024/04/06 03:33:46;;;;;;;3.78;1.45;;;15.50;99.90;;;;;;2092935;28;20029;-68
2024/04/06 03:34:47;;;;;;;2.58;1.60;;;15.50;99.90;;;;;;2093332;28;20492;-67
2024/04/06 03:35:47;;;;;;;2.10;1.33;;;15.40;99.90;;;;;;2091708;28;20070;-68
2024/04/06 03:36:48;;;;;;;1.85;1.55;;;15.40;99.90;;;;;;2095255;28;20029;-68
2024/04/06 03:37:50;;;;;;;4.20;1.50;;;15.40;99.90;;;;;;2094893;28;20032;-67
2024/04/06 03:38:50;;;;;;;4.22;1.48;;;15.40;99.90;;;;;;2093717;28;20066;-66
2024/04/06 03:39:51;;;;;;;2.45;1.30;;;15.40;99.90;;;;;;2093677;28;20016;-67
2024/04/06 03:40:51;;;;;;;3.83;1.45;;;15.40;99.90;;;;;;2091007;28;20050;-68
2024/04/06 03:41:52;;;;;;;3.10;1.10;;;15.40;99.90;;;;;;2091321;28;20468;-67
2024/04/06 03:42:58;;;;;;;2.33;1.23;;;15.30;99.90;;;;;;2094905;28;20035;-68
2024/04/06 03:43:59;;;;;;;3.70;1.60;;;15.40;99.90;;;;;;2093625;28;20024;-67
2024/04/06 03:44:59;;;;;;;3.72;1.50;;;15.30;99.90;;;;;;2093390;28;20118;-68
2024/04/06 03:46:00;;;;;;;1.73;1.13;;;15.40;99.90;;;;;;2087347;28;20021;-68
2024/04/06 03:47:01;;;;;;;3.22;1.27;;;15.30;99.90;;;;;;2079955;28;20033;-69
2024/04/06 03:48:03;;;;;;;2.70;1.60;;;15.30;99.90;;;;;;2085109;28;20030;-68
2024/04/06 03:49:03;;;;;;;3.17;1.30;;;15.30;99.90;;;;;;2092533;28;20021;-68
2024/04/06 03:50:04;;;;;;;4.53;1.65;;;15.30;99.90;;;;;;2093944;28;20051;-68
2024/04/06 03:51:05;;;;;;;1.90;1.40;;;15.20;99.90;;;;;;2094242;28;20021;-69
2024/04/06 03:52:05;;;;;;;3.70;1.40;;;15.30;99.90;;;;;;2090484;28;20098;-68
2024/04/06 03:53:06;;;;;;;2.97;1.80;;;15.20;99.90;;;;;;2093777;28;20021;-68
2024/04/06 03:54:06;;;;;;;3.00;1.38;;;15.20;99.90;;;;;;2092490;28;20397;-68
2024/04/06 03:55:07;;;;;;;2.80;1.65;;;15.20;99.90;;;;;;2091250;28;20033;-67
2024/04/06 03:56:07;;;;;;;2.10;1.20;;;15.20;99.90;;;;;;2094291;28;20400;-68
2024/04/06 03:57:09;;;;;;;3.83;1.27;;;15.20;99.90;;;;;;2094568;28;20694;-67
2024/04/06 03:58:09;;;;;;;4.95;1.90;;;15.20;99.90;;;;;;2095239;28;20041;-68
2024/04/06 03:59:10;;;;;;;1.77;1.30;;;15.10;99.90;;;;;;2092764;28;20118;-68
2024/04/06 04:00:14;;;;;;;2.08;1.38;;;15.10;99.90;;;;;;2091496;28;20058;-69
2024/04/06 04:01:15;;;;;;;3.63;1.63;;;15.10;99.90;;;;;;2094206;28;20032;-67
2024/04/06 04:02:16;;;;;;;1.83;1.27;;;15.10;99.90;;;;;;2093860;28;20036;-68
2024/04/06 04:03:16;;;;;;;2.80;1.40;;;15.10;99.90;;;;;;2092666;28;20032;-67
2024/04/06 04:04:17;;;;;;;2.13;1.58;;;15.10;99.90;;;;;;2092865;28;20052;-67
2024/04/06 04:05:17;;;;;;;1.98;1.20;;;15.10;99.90;;;;;;2093797;28;20071;-68
2024/04/06 04:06:18;;;;;;;2.65;1.30;;;15.10;99.90;;;;;;2093367;28;20021;-70
2024/04/06 04:07:19;;;;;;;2.65;1.20;;;15.10;99.90;;;;;;2093117;28;20029;-67
2024/04/06 04:08:19;;;;;;;2.67;1.60;;;15.10;99.90;;;;;;2083338;28;20025;-67
2024/04/06 04:09:20;;;;;;;9.20;1.63;;;15.10;99.90;;;;;;2084840;28;20508;-70
2024/04/06 04:10:20;;;;;;;4.65;1.90;;;15.10;99.90;;;;;;2091281;28;20685;-70
2024/04/06 04:11:22;;;;;;;4.35;1.30;;;15.10;99.90;;;;;;2091154;28;20057;-70
2024/04/06 04:12:23;;;;;;;1.98;1.30;;;15.00;99.90;;;;;;2092347;28;20024;-70
2024/04/06 04:13:24;;;;;;;2.25;1.30;;;15.00;99.90;;;;;;2093194;28;20131;-70
2024/04/06 04:14:24;;;;;;;2.00;1.38;;;15.00;99.90;;;;;;2092226;28;20025;-70
2024/04/06 04:15:25;;;;;;;2.25;1.30;;;15.00;99.90;;;;;;2094618;28;20025;-70
2024/04/06 04:16:25;;;;;;;2.33;1.30;;;15.00;99.90;;;;;;2094433;28;20033;-70
2024/04/06 04:17:26;;;;;;;2.42;1.40;;;15.00;99.90;;;;;;2092565;28;20158;-70
2024/04/06 04:18:27;;;;;;;2.80;1.48;;;15.00;99.90;;;;;;2093907;28;20025;-70
2024/04/06 04:19:27;;;;;;;3.20;1.33;;;15.00;99.90;;;;;;2092591;28;20068;-70
2024/04/06 04:20:28;;;;;;;2.63;1.40;;;15.00;99.90;;;;;;2094030;28;20025;-70
2024/04/06 04:21:29;;;;;;;2.63;1.20;;;15.00;99.90;;;;;;2093458;28;20082;-70
2024/04/06 04:22:30;;;;;;;2.88;1.25;;;15.00;99.90;;;;;;2093659;28;20040;-70
2024/04/06 04:23:30;;;;;;;3.05;1.27;;;15.00;99.90;;;;;;2091469;28;20550;-70
2024/04/06 04:24:31;;;;;;;1.33;0.90;;;15.00;99.90;;;;;;2093206;28;20079;-70
2024/04/06 04:25:32;;;;;;;2.63;1.63;;;14.90;99.90;;;;;;2094539;28;20021;-70
2024/04/06 04:26:32;;;;;;;1.30;1.02;;;14.90;99.90;;;;;;2084158;28;20059;-71
2024/04/06 04:27:33;;;;;;;2.10;1.25;;;14.90;99.90;;;;;;2078576;28;20025;-70
2024/04/06 04:28:34;;;;;;;2.92;1.10;;;14.90;99.90;;;;;;2086567;28;20055;-70
2024/04/06 04:29:34;;;;;;;1.85;1.27;;;14.90;99.90;;;;;;2094409;28;20060;-70
2024/04/06 04:30:35;;;;;;;2.00;1.20;;;14.90;99.90;;;;;;2093524;28;20012;-70
2024/04/06 04:31:35;;;;;;;2.72;1.25;;;14.90;99.90;;;;;;2094052;28;20052;-70
2024/04/06 04:32:36;;;;;;;2.55;1.30;;;14.90;99.90;;;;;;2093918;28;20025;-70
2024/04/06 04:33:36;;;;;;;2.17;1.23;;;14.90;99.90;;;;;;2094148;28;20060;-70
2024/04/06 04:34:37;;;;;;;5.97;1.20;;;15.00;99.90;;;;;;2093994;28;20036;-71
2024/04/06 04:35:37;;;;;;;2.10;0.90;;;15.00;99.90;;;;;;2091777;28;20580;-70
2024/04/06 04:36:38;;;;;;;2.78;1.27;;;15.00;99.90;;;;;;2092879;28;20021;-72
2024/04/06 04:37:38;;;;;;;1.27;1.17;;;15.00;99.90;;;;;;2093493;28;20032;-70
2024/04/06 04:38:40;;;;;;;2.17;1.10;;;15.00;99.90;;;;;;2093956;28;20437;-70
2024/04/06 04:39:40;;;;;;;2.85;1.17;;;15.00;99.90;;;;;;2094912;28;20032;-70
2024/04/06 04:40:41;;;;;;;2.75;1.30;;;15.00;99.90;;;;;;2092106;28;20033;-70
2024/04/06 04:41:43;;;;;;;3.95;1.50;;;15.00;99.90;;;;;;2092903;28;20064;-70
2024/04/06 04:42:43;;;;;;;2.50;1.20;;;15.00;99.90;;;;;;2092715;28;20040;-70
2024/04/06 04:43:44;;;;;;;3.83;1.15;;;15.00;99.90;;;;;;2094185;28;20029;-70
2024/04/06 04:44:44;;;;;;;1.40;1.02;;;15.00;99.90;;;;;;2093457;28;20474;-70
2024/04/06 04:45:45;;;;;;;4.03;1.48;;;15.00;99.90;;;;;;2092878;28;20086;-71
2024/04/06 04:46:45;;;;;;;2.78;1.15;;;15.00;99.90;;;;;;2093107;28;20100;-70
2024/04/06 04:47:48;;;;;;;1.42;0.90;;;15.00;99.90;;;;;;2093706;28;20013;-70
2024/04/06 04:48:52;;;;;;;1.88;1.00;;;15.00;99.90;;;;;;2092886;28;20037;-70
2024/04/06 04:49:53;;;;;;;2.75;1.05;;;15.00;99.90;;;;;;2087153;28;20025;-70
2024/04/06 04:50:53;;;;;;;3.42;0.95;;;15.00;99.90;;;;;;2086586;28;20033;-70
2024/04/06 04:51:54;;;;;;;1.60;1.02;;;15.00;99.90;;;;;;2094446;28;20104;-70
2024/04/06 04:52:54;;;;;;;1.80;1.45;;;15.00;99.90;;;;;;2095709;28;20460;-70
2024/04/06 04:53:56;;;;;;;1.30;0.93;;;15.00;99.90;;;;;;2094534;28;20043;-70
2024/04/06 04:54:56;;;;;;;1.88;1.10;;;15.00;99.90;;;;;;2093372;28;20358;-70
2024/04/06 04:55:57;;;;;;;2.72;1.38;;;15.00;99.90;;;;;;2093547;28;20040;-70
2024/04/06 04:56:57;;;;;;;1.75;1.10;;;15.00;99.90;;;;;;2093856;28;20102;-70
2024/04/06 04:57:58;;;;;;;2.20;1.10;;;15.00;99.90;;;;;;2092763;28;20064;-70
2024/04/06 04:58:59;;;;;;;2.15;1.33;;;15.00;99.90;;;;;;2094003;28;20037;-70
2024/04/06 04:59:59;;;;;;;1.73;1.23;;;15.00;99.90;;;;;;2094851;28;20037;-71
2024/04/06 05:01:00;;;;;;;2.13;0.90;;;15.00;99.90;;;;;;2093330;28;20044;-70
2024/04/06 05:02:00;;;;;;;1.33;0.90;;;15.00;99.90;;;;;;2093203;28;20032;-70
2024/04/06 05:03:01;;;;;;;2.42;1.45;;;15.10;99.90;;;;;;2092548;28;20597;-70
2024/04/06 05:04:01;;;;;;;2.85;1.52;;;15.00;99.90;;;;;;2094990;28;20132;-70
2024/04/06 05:05:03;;;;;;;2.13;1.35;;;15.00;99.90;;;;;;2094428;28;20100;-70
2024/04/06 05:06:04;;;;;;;2.10;1.10;;;15.00;99.90;;;;;;2094199;28;20040;-70
2024/04/06 05:07:05;;;;;;;2.15;1.30;;;15.00;99.90;;;;;;2096065;28;20025;-70
2024/04/06 05:08:08;;;;;;;1.67;1.05;;;15.00;99.90;;;;;;2093110;28;20446;-70
2024/04/06 05:09:10;;;;;;;1.20;0.90;;;15.00;99.90;;;;;;2091493;28;20063;-70
2024/04/06 05:10:10;;;;;;;2.10;1.27;;;15.00;99.90;;;;;;2094238;28;20720;-70
2024/04/06 05:11:11;;;;;;;2.10;1.25;;;15.00;99.90;;;;;;2093885;28;20025;-70
2024/04/06 05:12:12;;;;;;;1.10;1.00;;;15.00;99.90;;;;;;2093903;28;20075;-70
2024/04/06 05:13:12;;;;;;;1.42;0.88;;;15.00;99.90;;;;;;2092577;28;20068;-70
2024/04/06 05:14:13;;;;;;;2.90;1.30;;;15.10;99.90;;;;;;2094761;28;20028;-70
2024/04/06 05:15:13;;;;;;;2.95;1.33;;;15.00;99.90;;;;;;2093909;28;20033;-70
2024/04/06 05:16:14;;;;;;;3.78;1.55;;;15.00;99.90;;;;;;2094049;28;20054;-70
2024/04/06 05:17:14;;;;;;;1.92;1.00;;;15.00;99.90;;;;;;2093667;28;20021;-71
2024/04/06 05:18:15;;;;;;;2.42;1.35;;;15.00;99.90;;;;;;2095023;28;20444;-70